sensor_id;sensor_type;location;lat;lon;timestamp;pressure;altitude;pressure_sealevel;temperature;humidity
2841;BME280;53423;49.224;12.074;2023-04-16T00:02:08;97476.97;;;9.06;74.05
2841;BME280;53423;49.224;12.074;2023-04-16T00:04:36;97479.44;;;9.07;74.19
2841;BME280;53423;49.224;12.074;2023-04-16T00:07:04;97479.56;;;9.06;74.28
2841;BME280;53423;49.224;12.074;2023-04-16T00:09:32;97481.22;;;9.07;74.47
2841;BME280;53423;49.224;12.074;2023-04-16T00:12:00;97485.16;;;9.11;74.33
2841;BME280;53423;49.224;12.074;2023-04-16T00:14:28;97478.78;;;9.13;74.30
2841;BME280;53423;49.224;12.074;2023-04-16T00:16:56;97486.47;;;9.07;74.61
2841;BME280;53423;49.224;12.074;2023-04-16T00:19:26;97483.34;;;9.03;74.51
2841;BME280;53423;49.224;12.074;2023-04-16T00:21:53;97489.91;;;9.07;74.48
2841;BME280;53423;49.224;12.074;2023-04-16T00:24:21;97485.63;;;9.06;74.62
2841;BME280;53423;49.224;12.074;2023-04-16T00:26:49;97481.56;;;9.04;74.70
2841;BME280;53423;49.224;12.074;2023-04-16T00:29:17;97479.56;;;9.06;74.34
2841;BME280;53423;49.224;12.074;2023-04-16T00:31:45;97476.97;;;9.06;73.92
2841;BME280;53423;49.224;12.074;2023-04-16T00:34:13;97483.34;;;9.03;74.26
2841;BME280;53423;49.224;12.074;2023-04-16T00:36:42;97483.03;;;9.06;74.33
2841;BME280;53423;49.224;12.074;2023-04-16T00:39:10;97482.06;;;9.07;74.09
2841;BME280;53423;49.224;12.074;2023-04-16T00:41:38;97483.03;;;9.14;74.01
2841;BME280;53423;49.224;12.074;2023-04-16T00:44:06;97482.53;;;9.11;74.04
2841;BME280;53423;49.224;12.074;2023-04-16T00:46:35;97480.91;;;9.10;73.98
2841;BME280;53423;49.224;12.074;2023-04-16T00:49:04;97492.34;;;9.09;74.22
2841;BME280;53423;49.224;12.074;2023-04-16T00:51:34;97483.34;;;9.11;74.09
2841;BME280;53423;49.224;12.074;2023-04-16T00:54:03;97488.25;;;9.14;73.72
2841;BME280;53423;49.224;12.074;2023-04-16T00:56:32;97488.25;;;9.14;73.77
2841;BME280;53423;49.224;12.074;2023-04-16T00:59:00;97485.00;;;9.12;73.88
2841;BME280;53423;49.224;12.074;2023-04-16T01:01:28;97479.97;;;9.19;73.75
2841;BME280;53423;49.224;12.074;2023-04-16T01:03:56;97485.69;;;9.22;73.57
2841;BME280;53423;49.224;12.074;2023-04-16T01:06:24;97483.34;;;9.11;73.91
2841;BME280;53423;49.224;12.074;2023-04-16T01:08:52;97490.53;;;9.09;73.84
2841;BME280;53423;49.224;12.074;2023-04-16T01:11:21;97491.03;;;9.13;74.05
2841;BME280;53423;49.224;12.074;2023-04-16T01:13:49;97476.34;;;9.12;73.75
2841;BME280;53423;49.224;12.074;2023-04-16T01:16:17;97478.47;;;9.16;73.83
2841;BME280;53423;49.224;12.074;2023-04-16T01:18:45;97482.75;;;9.25;73.83
2841;BME280;53423;49.224;12.074;2023-04-16T01:21:14;97483.06;;;9.22;73.84
2841;BME280;53423;49.224;12.074;2023-04-16T01:23:42;97493.66;;;9.13;73.64
2841;BME280;53423;49.224;12.074;2023-04-16T01:26:10;97488.25;;;9.06;73.76
2841;BME280;53423;49.224;12.074;2023-04-16T01:28:38;97491.53;;;9.08;73.51
2841;BME280;53423;49.224;12.074;2023-04-16T01:31:06;97504.94;;;9.13;73.88
2841;BME280;53423;49.224;12.074;2023-04-16T01:33:35;97502.16;;;9.15;73.65
2841;BME280;53423;49.224;12.074;2023-04-16T01:36:03;97504.78;;;9.15;74.01
2841;BME280;53423;49.224;12.074;2023-04-16T01:38:32;97507.72;;;9.20;73.85
2841;BME280;53423;49.224;12.074;2023-04-16T01:41:00;97511.63;;;9.16;73.79
2841;BME280;53423;49.224;12.074;2023-04-16T01:43:28;97510.31;;;9.12;73.95
2841;BME280;53423;49.224;12.074;2023-04-16T01:46:10;97498.22;;;9.11;74.31
2841;BME280;53423;49.224;12.074;2023-04-16T01:48:39;97498.88;;;9.05;74.70
2841;BME280;53423;49.224;12.074;2023-04-16T01:51:06;97495.47;;;9.12;74.44
2841;BME280;53423;49.224;12.074;2023-04-16T01:53:36;97506.22;;;9.09;74.14
2841;BME280;53423;49.224;12.074;2023-04-16T01:56:05;97510.00;;;9.07;74.49
2841;BME280;53423;49.224;12.074;2023-04-16T01:58:33;97499.03;;;9.11;74.58
2841;BME280;53423;49.224;12.074;2023-04-16T02:01:01;97516.84;;;9.16;74.35
2841;BME280;53423;49.224;12.074;2023-04-16T02:03:30;97508.06;;;9.17;74.33
2841;BME280;53423;49.224;12.074;2023-04-16T02:05:58;97511.16;;;9.20;74.25
2841;BME280;53423;49.224;12.074;2023-04-16T02:08:26;97511.00;;;9.14;74.11
2841;BME280;53423;49.224;12.074;2023-04-16T02:10:56;97507.88;;;9.18;74.14
2841;BME280;53423;49.224;12.074;2023-04-16T02:13:24;97510.31;;;9.12;74.30
2841;BME280;53423;49.224;12.074;2023-04-16T02:15:52;97508.88;;;9.17;74.03
2841;BME280;53423;49.224;12.074;2023-04-16T02:18:20;97510.50;;;9.18;74.00
2841;BME280;53423;49.224;12.074;2023-04-16T02:20:48;97509.84;;;9.24;73.82
2841;BME280;53423;49.224;12.074;2023-04-16T02:23:16;97508.72;;;9.19;74.11
2841;BME280;53423;49.224;12.074;2023-04-16T02:25:45;97511.63;;;9.08;74.78
2841;BME280;53423;49.224;12.074;2023-04-16T02:28:15;97510.66;;;9.09;74.91
2841;BME280;53423;49.224;12.074;2023-04-16T02:30:43;97516.03;;;9.07;74.88
2841;BME280;53423;49.224;12.074;2023-04-16T02:33:11;97518.50;;;9.09;74.35
2841;BME280;53423;49.224;12.074;2023-04-16T02:35:39;97528.78;;;9.10;74.80
2841;BME280;53423;49.224;12.074;2023-04-16T02:38:08;97531.56;;;9.09;74.71
2841;BME280;53423;49.224;12.074;2023-04-16T02:40:35;97535.66;;;9.11;74.43
2841;BME280;53423;49.224;12.074;2023-04-16T02:43:03;97538.25;;;9.11;74.59
2841;BME280;53423;49.224;12.074;2023-04-16T02:45:33;97536.66;;;9.18;74.32
2841;BME280;53423;49.224;12.074;2023-04-16T02:48:01;97538.13;;;9.21;74.23
2841;BME280;53423;49.224;12.074;2023-04-16T02:50:29;97535.66;;;9.19;74.47
2841;BME280;53423;49.224;12.074;2023-04-16T02:52:57;97539.59;;;9.15;74.53
2841;BME280;53423;49.224;12.074;2023-04-16T02:55:25;97541.06;;;9.18;74.40
2841;BME280;53423;49.224;12.074;2023-04-16T02:57:55;97532.44;;;9.25;74.05
2841;BME280;53423;49.224;12.074;2023-04-16T03:00:22;97541.72;;;9.28;73.66
2841;BME280;53423;49.224;12.074;2023-04-16T03:02:52;97541.41;;;9.23;74.40
2841;BME280;53423;49.224;12.074;2023-04-16T03:05:20;97540.72;;;9.21;74.14
2841;BME280;53423;49.224;12.074;2023-04-16T03:07:48;97533.72;;;9.21;73.97
2841;BME280;53423;49.224;12.074;2023-04-16T03:10:22;97542.88;;;9.17;74.25
2841;BME280;53423;49.224;12.074;2023-04-16T03:12:50;97551.84;;;9.15;74.31
2841;BME280;53423;49.224;12.074;2023-04-16T03:15:18;97556.91;;;9.16;74.49
2841;BME280;53423;49.224;12.074;2023-04-16T03:17:46;97549.53;;;9.12;74.26
2841;BME280;53423;49.224;12.074;2023-04-16T03:20:15;97548.75;;;9.19;74.11
2841;BME280;53423;49.224;12.074;2023-04-16T03:22:44;97548.56;;;9.21;74.52
2841;BME280;53423;49.224;12.074;2023-04-16T03:25:12;97542.22;;;9.23;74.43
2841;BME280;53423;49.224;12.074;2023-04-16T03:27:40;97552.03;;;9.21;74.50
2841;BME280;53423;49.224;12.074;2023-04-16T03:30:10;97560.19;;;9.18;74.66
2841;BME280;53423;49.224;12.074;2023-04-16T03:32:39;97557.41;;;9.20;74.51
2841;BME280;53423;49.224;12.074;2023-04-16T03:35:08;97554.63;;;9.21;74.38
2841;BME280;53423;49.224;12.074;2023-04-16T03:37:37;97556.59;;;9.19;74.86
2841;BME280;53423;49.224;12.074;2023-04-16T03:40:06;97559.84;;;9.13;75.05
2841;BME280;53423;49.224;12.074;2023-04-16T03:42:34;97572.25;;;9.11;75.00
2841;BME280;53423;49.224;12.074;2023-04-16T03:45:02;97570.47;;;9.12;74.99
2841;BME280;53423;49.224;12.074;2023-04-16T03:47:30;97564.91;;;9.15;74.90
2841;BME280;53423;49.224;12.074;2023-04-16T03:49:58;97567.19;;;9.18;75.00
2841;BME280;53423;49.224;12.074;2023-04-16T03:52:26;97556.94;;;9.24;74.62
2841;BME280;53423;49.224;12.074;2023-04-16T03:54:56;97574.44;;;9.24;74.56
2841;BME280;53423;49.224;12.074;2023-04-16T03:57:24;97571.31;;;9.20;74.78
2841;BME280;53423;49.224;12.074;2023-04-16T03:59:51;97567.72;;;9.21;74.76
2841;BME280;53423;49.224;12.074;2023-04-16T04:02:19;97574.72;;;9.21;74.66
2841;BME280;53423;49.224;12.074;2023-04-16T04:04:47;97570.13;;;9.15;74.81
2841;BME280;53423;49.224;12.074;2023-04-16T04:07:15;97583.72;;;9.18;75.08
2841;BME280;53423;49.224;12.074;2023-04-16T04:09:43;97581.94;;;9.19;74.60
2841;BME280;53423;49.224;12.074;2023-04-16T04:12:12;97582.56;;;9.21;74.73
2841;BME280;53423;49.224;12.074;2023-04-16T04:14:40;97582.91;;;9.18;74.56
2841;BME280;53423;49.224;12.074;2023-04-16T04:17:08;97593.34;;;9.18;74.64
2841;BME280;53423;49.224;12.074;2023-04-16T04:19:36;97587.66;;;9.22;74.81
2841;BME280;53423;49.224;12.074;2023-04-16T04:22:12;97590.13;;;9.24;74.85
2841;BME280;53423;49.224;12.074;2023-04-16T04:24:40;97596.31;;;9.23;74.85
2841;BME280;53423;49.224;12.074;2023-04-16T04:27:08;97597.81;;;9.25;74.69
2841;BME280;53423;49.224;12.074;2023-04-16T04:29:38;97595.34;;;9.24;74.85
2841;BME280;53423;49.224;12.074;2023-04-16T04:32:05;97598.47;;;9.27;74.52
2841;BME280;53423;49.224;12.074;2023-04-16T04:34:33;97596.50;;;9.29;75.12
2841;BME280;53423;49.224;12.074;2023-04-16T04:37:01;97603.72;;;9.35;74.47
2841;BME280;53423;49.224;12.074;2023-04-16T04:39:29;97608.63;;;9.38;74.18
2841;BME280;53423;49.224;12.074;2023-04-16T04:41:57;97608.28;;;9.33;74.41
2841;BME280;53423;49.224;12.074;2023-04-16T04:44:25;97614.34;;;9.34;74.67
2841;BME280;53423;49.224;12.074;2023-04-16T04:46:54;97613.19;;;9.36;74.36
2841;BME280;53423;49.224;12.074;2023-04-16T04:49:22;97619.09;;;9.38;74.50
2841;BME280;53423;49.224;12.074;2023-04-16T04:51:50;97613.22;;;9.44;74.07
2841;BME280;53423;49.224;12.074;2023-04-16T04:54:18;97616.34;;;9.48;74.73
2841;BME280;53423;49.224;12.074;2023-04-16T04:56:46;97617.00;;;9.50;74.27
2841;BME280;53423;49.224;12.074;2023-04-16T04:59:14;97622.56;;;9.55;74.69
2841;BME280;53423;49.224;12.074;2023-04-16T05:01:42;97626.97;;;9.54;74.68
2841;BME280;53423;49.224;12.074;2023-04-16T05:04:11;97626.47;;;9.43;74.12
2841;BME280;53423;49.224;12.074;2023-04-16T05:06:39;97629.13;;;9.51;74.30
2841;BME280;53423;49.224;12.074;2023-04-16T05:09:07;97624.91;;;9.66;74.58
2841;BME280;53423;49.224;12.074;2023-04-16T05:11:37;97631.59;;;9.60;74.48
2841;BME280;53423;49.224;12.074;2023-04-16T05:14:05;97636.19;;;9.66;73.81
2841;BME280;53423;49.224;12.074;2023-04-16T05:16:35;97631.13;;;9.73;74.40
2841;BME280;53423;49.224;12.074;2023-04-16T05:19:03;97630.00;;;9.75;73.82
2841;BME280;53423;49.224;12.074;2023-04-16T05:21:33;97626.25;;;9.86;73.37
2841;BME280;53423;49.224;12.074;2023-04-16T05:24:01;97631.66;;;9.92;72.89
2841;BME280;53423;49.224;12.074;2023-04-16T05:26:29;97638.88;;;9.98;73.07
2841;BME280;53423;49.224;12.074;2023-04-16T05:28:56;97630.25;;;10.14;72.14
2841;BME280;53423;49.224;12.074;2023-04-16T05:31:25;97638.94;;;10.15;72.43
2841;BME280;53423;49.224;12.074;2023-04-16T05:33:52;97643.84;;;10.10;71.74
2841;BME280;53423;49.224;12.074;2023-04-16T05:36:20;97642.84;;;10.19;72.01
2841;BME280;53423;49.224;12.074;2023-04-16T05:38:50;97650.72;;;10.43;71.25
2841;BME280;53423;49.224;12.074;2023-04-16T05:41:17;97651.06;;;10.48;71.94
2841;BME280;53423;49.224;12.074;2023-04-16T05:43:45;97658.41;;;10.44;70.60
2841;BME280;53423;49.224;12.074;2023-04-16T05:46:13;97656.13;;;10.57;71.44
2841;BME280;53423;49.224;12.074;2023-04-16T05:48:41;97657.94;;;10.25;71.43
2841;BME280;53423;49.224;12.074;2023-04-16T05:51:09;97661.47;;;9.99;72.08
2841;BME280;53423;49.224;12.074;2023-04-16T05:53:37;97657.28;;;10.23;72.00
2841;BME280;53423;49.224;12.074;2023-04-16T05:56:07;97663.63;;;10.20;71.58
2841;BME280;53423;49.224;12.074;2023-04-16T05:58:35;97671.31;;;10.22;71.57
2841;BME280;53423;49.224;12.074;2023-04-16T06:01:02;97667.91;;;10.37;70.86
2841;BME280;53423;49.224;12.074;2023-04-16T06:03:30;97672.03;;;10.40;70.47
2841;BME280;53423;49.224;12.074;2023-04-16T06:05:58;97674.31;;;10.35;71.08
2841;BME280;53423;49.224;12.074;2023-04-16T06:08:26;97679.84;;;10.32;70.30
2841;BME280;53423;49.224;12.074;2023-04-16T06:10:54;97676.94;;;10.43;70.75
2841;BME280;53423;49.224;12.074;2023-04-16T06:13:24;97679.72;;;10.49;70.38
2841;BME280;53423;49.224;12.074;2023-04-16T06:15:52;97682.34;;;10.41;71.28
2841;BME280;53423;49.224;12.074;2023-04-16T06:18:20;97681.00;;;10.37;71.50
2841;BME280;53423;49.224;12.074;2023-04-16T06:20:48;97684.47;;;10.38;71.27
2841;BME280;53423;49.224;12.074;2023-04-16T06:23:15;97679.88;;;10.40;70.64
2841;BME280;53423;49.224;12.074;2023-04-16T06:25:43;97682.50;;;10.40;70.80
2841;BME280;53423;49.224;12.074;2023-04-16T06:28:11;97688.03;;;10.29;69.98
2841;BME280;53423;49.224;12.074;2023-04-16T06:30:40;97681.19;;;10.20;71.08
2841;BME280;53423;49.224;12.074;2023-04-16T06:33:10;97686.09;;;10.39;70.70
2841;BME280;53423;49.224;12.074;2023-04-16T06:35:38;97686.59;;;10.42;71.40
2841;BME280;53423;49.224;12.074;2023-04-16T06:38:06;97685.78;;;10.50;71.91
2841;BME280;53423;49.224;12.074;2023-04-16T06:40:34;97685.94;;;10.56;70.92
2841;BME280;53423;49.224;12.074;2023-04-16T06:43:03;97687.41;;;10.59;71.45
2841;BME280;53423;49.224;12.074;2023-04-16T06:45:31;97692.16;;;10.71;70.57
2841;BME280;53423;49.224;12.074;2023-04-16T06:48:00;97691.63;;;10.84;70.77
2841;BME280;53423;49.224;12.074;2023-04-16T06:50:29;97692.47;;;10.84;70.53
2841;BME280;53423;49.224;12.074;2023-04-16T06:52:57;97685.34;;;11.25;70.08
2841;BME280;53423;49.224;12.074;2023-04-16T06:55:25;97694.34;;;11.31;68.07
2841;BME280;53423;49.224;12.074;2023-04-16T06:57:53;97693.59;;;11.61;67.82
2841;BME280;53423;49.224;12.074;2023-04-16T07:00:21;97693.50;;;11.85;67.45
2841;BME280;53423;49.224;12.074;2023-04-16T07:02:49;97702.50;;;12.21;66.89
2841;BME280;53423;49.224;12.074;2023-04-16T07:05:18;97699.09;;;12.35;66.00
2841;BME280;53423;49.224;12.074;2023-04-16T07:07:46;97691.06;;;12.74;65.43
2841;BME280;53423;49.224;12.074;2023-04-16T07:10:14;97693.50;;;12.61;64.30
2841;BME280;53423;49.224;12.074;2023-04-16T07:12:42;97703.56;;;12.34;64.41
2841;BME280;53423;49.224;12.074;2023-04-16T07:15:10;97698.97;;;12.74;62.39
2841;BME280;53423;49.224;12.074;2023-04-16T07:17:38;97702.53;;;13.91;60.75
2841;BME280;53423;49.224;12.074;2023-04-16T07:20:07;97697.56;;;15.01;59.14
2841;BME280;53423;49.224;12.074;2023-04-16T07:22:36;97693.31;;;16.09;54.89
2841;BME280;53423;49.224;12.074;2023-04-16T07:25:05;97681.81;;;17.40;52.69
2841;BME280;53423;49.224;12.074;2023-04-16T07:27:33;97691.72;;;17.91;49.24
2841;BME280;53423;49.224;12.074;2023-04-16T07:30:01;97693.16;;;17.87;48.28
2841;BME280;53423;49.224;12.074;2023-04-16T07:32:29;97698.19;;;17.11;48.04
2841;BME280;53423;49.224;12.074;2023-04-16T07:34:57;97690.84;;;16.68;49.31
2841;BME280;53423;49.224;12.074;2023-04-16T07:37:25;97696.19;;;16.14;50.39
2841;BME280;53423;49.224;12.074;2023-04-16T07:39:55;97705.44;;;15.22;52.47
2841;BME280;53423;49.224;12.074;2023-04-16T07:42:23;97703.00;;;14.72;54.15
2841;BME280;53423;49.224;12.074;2023-04-16T07:44:51;97701.47;;;14.84;55.40
2841;BME280;53423;49.224;12.074;2023-04-16T07:47:19;97703.75;;;14.45;53.79
2841;BME280;53423;49.224;12.074;2023-04-16T07:49:48;97707.22;;;14.66;55.74
2841;BME280;53423;49.224;12.074;2023-04-16T07:52:16;97708.28;;;14.93;54.82
2841;BME280;53423;49.224;12.074;2023-04-16T07:54:44;97707.69;;;15.53;52.56
2841;BME280;53423;49.224;12.074;2023-04-16T07:57:14;97704.25;;;15.99;53.72
2841;BME280;53423;49.224;12.074;2023-04-16T07:59:41;97700.59;;;15.94;53.40
2841;BME280;53423;49.224;12.074;2023-04-16T08:02:12;97708.47;;;15.47;53.99
2841;BME280;53423;49.224;12.074;2023-04-16T08:04:41;97701.53;;;14.90;54.65
2841;BME280;53423;49.224;12.074;2023-04-16T08:07:09;97710.03;;;14.44;55.24
2841;BME280;53423;49.224;12.074;2023-04-16T08:09:46;97715.44;;;14.36;54.85
2841;BME280;53423;49.224;12.074;2023-04-16T08:12:15;97717.59;;;13.97;56.25
2841;BME280;53423;49.224;12.074;2023-04-16T08:14:44;97724.44;;;13.62;56.97
2841;BME280;53423;49.224;12.074;2023-04-16T08:17:13;97729.09;;;13.45;57.12
2841;BME280;53423;49.224;12.074;2023-04-16T08:19:41;97727.97;;;13.25;58.25
2841;BME280;53423;49.224;12.074;2023-04-16T08:22:10;97735.34;;;13.30;58.85
2841;BME280;53423;49.224;12.074;2023-04-16T08:24:38;97738.47;;;13.11;59.53
2841;BME280;53423;49.224;12.074;2023-04-16T08:27:06;97744.22;;;12.92;60.11
2841;BME280;53423;49.224;12.074;2023-04-16T08:29:46;97746.03;;;12.69;59.87
2841;BME280;53423;49.224;12.074;2023-04-16T08:32:15;97751.72;;;12.58;61.28
2841;BME280;53423;49.224;12.074;2023-04-16T08:34:42;97754.47;;;12.33;61.52
2841;BME280;53423;49.224;12.074;2023-04-16T08:37:11;97755.97;;;12.36;61.18
2841;BME280;53423;49.224;12.074;2023-04-16T08:39:38;97763.72;;;12.29;62.16
2841;BME280;53423;49.224;12.074;2023-04-16T08:42:11;97766.25;;;11.84;63.31
2841;BME280;53423;49.224;12.074;2023-04-16T08:44:42;97768.88;;;11.84;63.82
2841;BME280;53423;49.224;12.074;2023-04-16T08:47:16;97775.75;;;11.85;63.56
2841;BME280;53423;49.224;12.074;2023-04-16T08:49:44;97776.22;;;11.89;63.76
2841;BME280;53423;49.224;12.074;2023-04-16T08:52:16;97777.38;;;11.86;63.55
2841;BME280;53423;49.224;12.074;2023-04-16T08:54:47;97777.72;;;11.83;64.58
2841;BME280;53423;49.224;12.074;2023-04-16T08:57:23;97781.34;;;11.82;64.03
2841;BME280;53423;49.224;12.074;2023-04-16T08:59:53;97785.00;;;11.57;64.87
2841;BME280;53423;49.224;12.074;2023-04-16T09:02:24;97783.34;;;11.72;64.07
2841;BME280;53423;49.224;12.074;2023-04-16T09:04:53;97784.97;;;11.73;64.40
2841;BME280;53423;49.224;12.074;2023-04-16T09:07:23;97788.56;;;11.80;63.43
2841;BME280;53423;49.224;12.074;2023-04-16T09:09:52;97785.13;;;11.72;63.67
2841;BME280;53423;49.224;12.074;2023-04-16T09:12:22;97790.31;;;11.88;62.79
2841;BME280;53423;49.224;12.074;2023-04-16T09:14:50;97796.50;;;11.64;63.13
2841;BME280;53423;49.224;12.074;2023-04-16T09:17:18;97797.28;;;11.81;63.24
2841;BME280;53423;49.224;12.074;2023-04-16T09:19:48;97796.44;;;11.80;63.55
2841;BME280;53423;49.224;12.074;2023-04-16T09:22:15;97805.13;;;11.89;62.46
2841;BME280;53423;49.224;12.074;2023-04-16T09:24:43;97811.00;;;11.99;62.48
2841;BME280;53423;49.224;12.074;2023-04-16T09:27:11;97814.53;;;12.14;62.71
2841;BME280;53423;49.224;12.074;2023-04-16T09:29:40;97814.06;;;12.10;62.18
2841;BME280;53423;49.224;12.074;2023-04-16T09:32:09;97819.44;;;12.17;62.40
2841;BME280;53423;49.224;12.074;2023-04-16T09:37:35;97812.94;;;12.05;61.99
2841;BME280;53423;49.224;12.074;2023-04-16T09:40:04;97816.16;;;12.23;61.72
2841;BME280;53423;49.224;12.074;2023-04-16T09:42:33;97816.13;;;12.31;61.49
2841;BME280;53423;49.224;12.074;2023-04-16T09:45:03;97812.13;;;12.35;60.81
2841;BME280;53423;49.224;12.074;2023-04-16T09:47:39;97819.81;;;12.44;60.82
2841;BME280;53423;49.224;12.074;2023-04-16T09:50:09;97814.81;;;12.58;60.72
2841;BME280;53423;49.224;12.074;2023-04-16T09:52:42;97818.06;;;12.90;60.28
2841;BME280;53423;49.224;12.074;2023-04-16T09:55:10;97815.72;;;12.95;60.14
2841;BME280;53423;49.224;12.074;2023-04-16T09:57:38;97813.84;;;13.04;59.93
2841;BME280;53423;49.224;12.074;2023-04-16T10:00:07;97815.63;;;13.48;59.71
2841;BME280;53423;49.224;12.074;2023-04-16T10:02:38;97818.38;;;13.84;57.87
2841;BME280;53423;49.224;12.074;2023-04-16T10:05:08;97820.19;;;13.98;57.21
2841;BME280;53423;49.224;12.074;2023-04-16T10:07:36;97819.66;;;14.46;56.16
2841;BME280;53423;49.224;12.074;2023-04-16T10:10:06;97810.25;;;14.79;55.29
2841;BME280;53423;49.224;12.074;2023-04-16T10:12:34;97811.22;;;14.93;54.99
2841;BME280;53423;49.224;12.074;2023-04-16T10:15:03;97815.72;;;14.99;54.56
2841;BME280;53423;49.224;12.074;2023-04-16T10:17:31;97807.38;;;14.95;54.62
2841;BME280;53423;49.224;12.074;2023-04-16T10:20:00;97808.69;;;14.85;52.55
2841;BME280;53423;49.224;12.074;2023-04-16T10:22:32;97810.69;;;15.04;53.41
2841;BME280;53423;49.224;12.074;2023-04-16T10:25:06;97809.72;;;15.05;52.15
2841;BME280;53423;49.224;12.074;2023-04-16T10:27:35;97811.53;;;15.05;52.52
2841;BME280;53423;49.224;12.074;2023-04-16T10:30:08;97808.00;;;15.19;52.31
2841;BME280;53423;49.224;12.074;2023-04-16T10:32:40;97813.41;;;15.11;51.59
2841;BME280;53423;49.224;12.074;2023-04-16T10:35:14;97812.59;;;15.10;50.44
2841;BME280;53423;49.224;12.074;2023-04-16T10:37:43;97809.63;;;15.20;48.86
2841;BME280;53423;49.224;12.074;2023-04-16T10:40:27;97818.06;;;15.09;48.50
2841;BME280;53423;49.224;12.074;2023-04-16T10:42:55;97813.94;;;15.27;48.53
2841;BME280;53423;49.224;12.074;2023-04-16T10:45:30;97814.81;;;15.34;49.81
2841;BME280;53423;49.224;12.074;2023-04-16T10:48:04;97827.84;;;15.36;49.86
2841;BME280;53423;49.224;12.074;2023-04-16T10:50:35;97826.84;;;15.16;50.15
2841;BME280;53423;49.224;12.074;2023-04-16T10:53:16;97821.84;;;15.00;50.59
2841;BME280;53423;49.224;12.074;2023-04-16T10:56:13;97823.00;;;14.76;49.52
2841;BME280;53423;49.224;12.074;2023-04-16T10:58:41;97830.44;;;14.87;50.02
2841;BME280;53423;49.224;12.074;2023-04-16T11:01:13;97827.78;;;14.87;50.57
2841;BME280;53423;49.224;12.074;2023-04-16T11:03:44;97835.88;;;14.64;52.33
2841;BME280;53423;49.224;12.074;2023-04-16T11:06:14;97823.38;;;14.73;52.01
2841;BME280;53423;49.224;12.074;2023-04-16T11:08:43;97837.34;;;14.88;51.46
2841;BME280;53423;49.224;12.074;2023-04-16T11:11:22;97830.97;;;14.61;51.59
2841;BME280;53423;49.224;12.074;2023-04-16T11:13:54;97842.56;;;14.46;50.99
2841;BME280;53423;49.224;12.074;2023-04-16T11:16:23;97838.97;;;14.53;51.88
2841;BME280;53423;49.224;12.074;2023-04-16T11:18:52;97828.38;;;14.32;51.83
2841;BME280;53423;49.224;12.074;2023-04-16T11:21:22;97828.22;;;14.90;51.05
2841;BME280;53423;49.224;12.074;2023-04-16T11:23:51;97822.50;;;15.29;51.18
2841;BME280;53423;49.224;12.074;2023-04-16T11:26:25;97829.88;;;15.55;51.21
2841;BME280;53423;49.224;12.074;2023-04-16T11:28:54;97823.66;;;15.41;50.05
2841;BME280;53423;49.224;12.074;2023-04-16T11:31:22;97833.22;;;15.70;48.81
2841;BME280;53423;49.224;12.074;2023-04-16T11:33:54;97827.66;;;15.86;49.78
2841;BME280;53423;49.224;12.074;2023-04-16T11:36:23;97828.06;;;16.24;49.77
2841;BME280;53423;49.224;12.074;2023-04-16T11:39:11;97825.38;;;16.17;49.01
2841;BME280;53423;49.224;12.074;2023-04-16T11:41:44;97829.47;;;16.60;47.88
2841;BME280;53423;49.224;12.074;2023-04-16T11:44:17;97829.78;;;16.98;45.40
2841;BME280;53423;49.224;12.074;2023-04-16T11:46:45;97823.72;;;17.23;44.27
2841;BME280;53423;49.224;12.074;2023-04-16T11:49:13;97824.06;;;16.88;43.97
2841;BME280;53423;49.224;12.074;2023-04-16T11:51:43;97838.19;;;17.40;43.68
2841;BME280;53423;49.224;12.074;2023-04-16T11:54:18;97838.75;;;18.21;42.51
2841;BME280;53423;49.224;12.074;2023-04-16T11:56:49;97838.78;;;18.01;42.80
2841;BME280;53423;49.224;12.074;2023-04-16T11:59:18;97834.34;;;17.76;43.00
2841;BME280;53423;49.224;12.074;2023-04-16T12:01:48;97832.91;;;17.80;42.19
2841;BME280;53423;49.224;12.074;2023-04-16T12:04:18;97842.09;;;17.77;41.26
2841;BME280;53423;49.224;12.074;2023-04-16T12:07:06;97828.59;;;17.39;42.33
2841;BME280;53423;49.224;12.074;2023-04-16T12:09:34;97837.53;;;16.99;42.36
2841;BME280;53423;49.224;12.074;2023-04-16T12:12:24;97834.06;;;17.05;41.10
2841;BME280;53423;49.224;12.074;2023-04-16T12:14:53;97823.88;;;17.02;42.10
2841;BME280;53423;49.224;12.074;2023-04-16T12:17:22;97834.53;;;17.35;42.60
2841;BME280;53423;49.224;12.074;2023-04-16T12:19:54;97832.66;;;17.09;41.97
2841;BME280;53423;49.224;12.074;2023-04-16T12:22:29;97834.47;;;17.15;42.71
2841;BME280;53423;49.224;12.074;2023-04-16T12:25:01;97830.53;;;16.72;42.25
2841;BME280;53423;49.224;12.074;2023-04-16T12:27:47;97838.50;;;16.92;43.12
2841;BME280;53423;49.224;12.074;2023-04-16T12:30:20;97834.06;;;16.99;42.28
2841;BME280;53423;49.224;12.074;2023-04-16T12:32:50;97844.91;;;17.23;42.44
2841;BME280;53423;49.224;12.074;2023-04-16T12:35:31;97833.28;;;17.05;44.64
2841;BME280;53423;49.224;12.074;2023-04-16T12:37:59;97832.41;;;16.78;43.75
2841;BME280;53423;49.224;12.074;2023-04-16T12:40:29;97831.81;;;16.96;44.38
2841;BME280;53423;49.224;12.074;2023-04-16T12:42:58;97829.69;;;16.65;45.41
2841;BME280;53423;49.224;12.074;2023-04-16T12:45:26;97831.31;;;16.60;46.34
2841;BME280;53423;49.224;12.074;2023-04-16T12:47:54;97827.00;;;16.18;45.90
2841;BME280;53423;49.224;12.074;2023-04-16T12:50:23;97829.34;;;16.34;45.87
2841;BME280;53423;49.224;12.074;2023-04-16T12:52:51;97833.22;;;16.38;45.58
2841;BME280;53423;49.224;12.074;2023-04-16T12:55:19;97833.41;;;16.37;46.98
2841;BME280;53423;49.224;12.074;2023-04-16T12:57:46;97833.84;;;16.40;46.82
2841;BME280;53423;49.224;12.074;2023-04-16T13:00:17;97827.47;;;16.28;48.00
2841;BME280;53423;49.224;12.074;2023-04-16T13:02:45;97833.53;;;15.88;47.38
2841;BME280;53423;49.224;12.074;2023-04-16T13:05:13;97829.22;;;16.14;47.72
2841;BME280;53423;49.224;12.074;2023-04-16T13:07:42;97829.06;;;16.16;47.67
2841;BME280;53423;49.224;12.074;2023-04-16T13:10:10;97835.41;;;16.28;46.65
2841;BME280;53423;49.224;12.074;2023-04-16T13:12:39;97827.00;;;16.18;47.92
2841;BME280;53423;49.224;12.074;2023-04-16T13:15:08;97828.53;;;16.40;46.66
2841;BME280;53423;49.224;12.074;2023-04-16T13:17:37;97824.38;;;16.59;45.85
2841;BME280;53423;49.224;12.074;2023-04-16T13:20:06;97828.50;;;16.74;44.60